createdAt,value
2019-04-10T00:00:02.489Z,11.10
2019-04-10T00:02:31.912Z,14.83
2019-04-10T00:05:01.413Z,20.32
2019-04-10T00:07:31.247Z,13.90
2019-04-10T00:10:00.978Z,12.43
2019-04-10T00:12:31.761Z,14.33
2019-04-10T00:15:01.792Z,16.87
2019-04-10T00:17:31.344Z,17.52
2019-04-10T00:20:00.377Z,8.70
2019-04-10T00:22:30.453Z,12.33
2019-04-10T00:25:00.100Z,11.57
2019-04-10T00:27:29.052Z,20.97
2019-04-10T00:29:58.355Z,11.65
2019-04-10T00:32:27.908Z,11.90
2019-04-10T00:34:58.083Z,11.85
2019-04-10T00:37:30.007Z,11.85
2019-04-10T00:39:59.101Z,13.32
2019-04-10T00:42:29.445Z,13.45
2019-04-10T00:44:59.544Z,9.15
2019-04-10T00:47:28.855Z,9.60
2019-04-10T00:49:58.072Z,10.43
2019-04-10T00:52:28.154Z,13.85
2019-04-10T00:54:57.876Z,10.15
2019-04-10T00:57:27.448Z,11.55
2019-04-10T00:59:56.820Z,21.25
2019-04-10T01:02:26.886Z,15.35
2019-04-10T01:04:56.580Z,14.05
2019-04-10T01:07:33.711Z,9.73
2019-04-10T01:09:57.544Z,14.10
2019-04-10T01:12:27.657Z,13.18
2019-04-10T01:14:56.513Z,18.00
2019-04-10T01:17:26.493Z,10.75
2019-04-10T01:19:56.495Z,11.70
2019-04-10T01:22:25.951Z,14.98
2019-04-10T01:24:54.804Z,10.60
2019-04-10T01:27:23.915Z,10.50
2019-04-10T01:29:53.704Z,12.93
2019-04-10T01:32:23.796Z,12.40
2019-04-10T01:34:53.916Z,17.10
2019-04-10T01:37:23.292Z,14.07
2019-04-10T01:39:52.840Z,16.02
2019-04-10T01:42:22.845Z,17.80
2019-04-10T01:44:52.953Z,9.83
2019-04-10T01:47:23.365Z,14.30
2019-04-10T01:49:53.722Z,12.70
2019-04-10T01:52:23.235Z,11.75
2019-04-10T01:54:52.970Z,10.85
2019-04-10T01:57:22.163Z,13.35
2019-04-10T01:59:50.796Z,15.43
2019-04-10T02:02:29.479Z,12.70
2019-04-10T02:04:59.009Z,11.43
2019-04-10T02:07:27.503Z,15.88
2019-04-10T02:09:57.254Z,12.10
2019-04-10T02:12:26.534Z,17.80
2019-04-10T02:14:56.497Z,12.68
2019-04-10T02:17:26.541Z,18.65
2019-04-10T02:19:56.821Z,14.25
2019-04-10T02:22:26.553Z,13.18
2019-04-10T02:24:55.979Z,15.00
2019-04-10T02:27:24.759Z,15.05
2019-04-10T02:29:53.779Z,13.72
2019-04-10T02:32:24.107Z,13.62
2019-04-10T02:34:53.193Z,11.18
2019-04-10T02:37:22.922Z,12.55
2019-04-10T02:39:56.129Z,14.75
2019-04-10T02:42:24.665Z,14.35
2019-04-10T02:44:54.178Z,15.00
2019-04-10T02:47:23.529Z,11.73
2019-04-10T02:49:54.259Z,12.33
2019-04-10T02:52:24.539Z,15.38
2019-04-10T02:54:54.159Z,12.18
2019-04-10T02:57:25.451Z,10.88
2019-04-10T02:59:55.643Z,15.18
2019-04-10T03:02:24.570Z,17.75
2019-04-10T03:04:53.292Z,15.70
2019-04-10T03:07:23.975Z,11.97
2019-04-10T03:10:07.312Z,18.45
2019-04-10T03:12:24.948Z,11.97
2019-04-10T03:14:55.021Z,11.95
2019-04-10T03:17:25.850Z,12.25
2019-04-10T03:19:56.088Z,13.80
2019-04-10T03:22:25.010Z,16.37
2019-04-10T03:24:56.764Z,13.10
2019-04-10T03:27:26.122Z,14.05
2019-04-10T03:29:56.046Z,12.20
2019-04-10T03:32:51.764Z,11.65
2019-04-10T03:35:26.977Z,10.95
2019-04-10T03:37:57.308Z,15.25
2019-04-10T03:40:27.176Z,14.78
2019-04-10T03:42:57.235Z,11.57
2019-04-10T03:45:26.601Z,12.47
2019-04-10T03:47:55.914Z,12.13
2019-04-10T03:50:25.857Z,16.48
2019-04-10T03:52:54.524Z,12.05
2019-04-10T03:55:23.629Z,14.30
2019-04-10T03:57:53.283Z,13.43
2019-04-10T04:00:23.089Z,13.98
2019-04-10T04:02:52.099Z,15.10
2019-04-10T04:05:21.053Z,15.20
2019-04-10T04:07:50.682Z,15.30
2019-04-10T04:10:20.496Z,14.55
2019-04-10T04:12:49.731Z,11.93
2019-04-10T04:15:19.913Z,10.35
2019-04-10T04:17:48.953Z,13.22
2019-04-10T04:20:19.009Z,10.98
2019-04-10T04:22:49.402Z,10.82
2019-04-10T04:25:18.677Z,10.90
2019-04-10T04:27:48.196Z,10.90
2019-04-10T04:30:17.767Z,12.23
2019-04-10T04:32:48.310Z,11.75
2019-04-10T04:35:17.623Z,10.05
2019-04-10T04:37:47.032Z,12.10
2019-04-10T04:40:15.883Z,14.70
2019-04-10T04:42:45.300Z,14.18
2019-04-10T04:45:14.842Z,15.53
2019-04-10T04:47:44.137Z,10.60
2019-04-10T04:50:13.414Z,11.40
2019-04-10T04:52:43.431Z,11.60
2019-04-10T04:55:12.418Z,12.23
2019-04-10T04:57:42.276Z,11.70
2019-04-10T05:00:13.091Z,9.55
2019-04-10T05:02:42.689Z,13.15
2019-04-10T05:05:11.454Z,6.87
2019-04-10T05:07:40.220Z,10.35
2019-04-10T05:10:11.105Z,8.90
2019-04-10T05:12:40.907Z,10.82
2019-04-10T05:15:12.914Z,10.98
2019-04-10T05:17:42.270Z,9.33
2019-04-10T05:20:11.821Z,7.15
2019-04-10T05:22:41.648Z,9.13
2019-04-10T05:25:11.151Z,11.95
2019-04-10T05:27:41.367Z,11.22
2019-04-10T05:30:10.819Z,12.35
2019-04-10T05:32:39.799Z,7.25
2019-04-10T05:35:09.785Z,10.50
2019-04-10T05:37:40.087Z,9.95
2019-04-10T05:40:09.797Z,8.83
2019-04-10T05:42:39.533Z,7.92
2019-04-10T05:45:09.208Z,6.55
2019-04-10T05:47:38.821Z,8.03
2019-04-10T05:50:10.856Z,8.50
2019-04-10T05:52:39.961Z,9.13
2019-04-10T05:55:09.017Z,18.23
2019-04-10T05:57:37.919Z,11.95
2019-04-10T06:00:08.663Z,11.57
2019-04-10T06:02:37.701Z,11.40
2019-04-10T06:05:07.868Z,10.05
2019-04-10T06:07:37.163Z,11.50
2019-04-10T06:10:09.948Z,8.15
2019-04-10T06:12:38.052Z,6.67
2019-04-10T06:15:07.932Z,7.35
2019-04-10T06:17:36.413Z,6.55
2019-04-10T06:20:07.075Z,8.75
2019-04-10T06:22:36.895Z,7.80
2019-04-10T06:25:10.642Z,7.78
2019-04-10T06:27:37.359Z,6.47
2019-04-10T06:30:07.867Z,7.58
2019-04-10T06:32:37.706Z,8.58
2019-04-10T06:35:08.160Z,6.92
2019-04-10T06:37:37.987Z,7.30
2019-04-10T06:40:15.280Z,10.80
2019-04-10T06:42:46.550Z,7.37
2019-04-10T06:45:09.549Z,14.73
2019-04-10T06:47:38.691Z,8.83
2019-04-10T06:50:08.229Z,5.87
2019-04-10T06:52:37.120Z,6.62
2019-04-10T06:55:06.164Z,7.92
2019-04-10T06:57:48.088Z,7.22
2019-04-10T07:00:12.125Z,7.87
2019-04-10T07:02:39.523Z,7.75
2019-04-10T07:05:10.608Z,8.40
2019-04-10T07:07:47.498Z,8.13
2019-04-10T07:10:22.515Z,9.05
2019-04-10T07:12:41.763Z,8.73
2019-04-10T07:15:10.988Z,7.78
2019-04-10T07:17:41.634Z,9.80
2019-04-10T07:20:11.899Z,12.55
2019-04-10T07:22:46.584Z,7.83
2019-04-10T07:25:13.996Z,8.65
2019-04-10T07:27:41.993Z,8.70
2019-04-10T07:30:11.878Z,8.98
2019-04-10T07:32:44.812Z,8.20
2019-04-10T07:35:15.371Z,9.45
2019-04-10T07:37:43.092Z,10.53
2019-04-10T07:40:21.235Z,9.68
2019-04-10T07:42:50.559Z,9.90
2019-04-10T07:45:19.693Z,11.78
2019-04-10T07:47:48.574Z,9.30
2019-04-10T07:50:18.404Z,9.75
2019-04-10T07:52:47.879Z,10.38
2019-04-10T07:55:17.031Z,9.90
2019-04-10T07:57:48.756Z,10.25
2019-04-10T08:00:18.051Z,10.10
2019-04-10T08:02:47.417Z,12.78
2019-04-10T08:05:16.716Z,9.25
2019-04-10T08:07:45.838Z,11.68
2019-04-10T08:10:15.830Z,9.35
2019-04-10T08:12:49.072Z,10.72
2019-04-10T08:15:16.792Z,12.43
2019-04-10T08:17:49.025Z,19.12
2019-04-10T08:20:17.689Z,12.63
2019-04-10T08:22:46.901Z,11.05
2019-04-10T08:25:16.371Z,12.40
2019-04-10T08:27:46.005Z,15.75
2019-04-10T08:30:15.449Z,11.45
2019-04-10T08:32:53.291Z,14.75
2019-04-10T08:35:15.515Z,12.15
2019-04-10T08:37:45.335Z,12.78
2019-04-10T08:40:15.725Z,13.40
2019-04-10T08:42:46.172Z,20.15
2019-04-10T08:45:16.828Z,14.30
2019-04-10T08:47:46.021Z,13.20
2019-04-10T08:50:15.059Z,25.85
2019-04-10T08:52:44.524Z,20.43
2019-04-10T08:55:15.561Z,18.27
2019-04-10T08:57:45.812Z,15.50
2019-04-10T09:00:16.358Z,22.25
2019-04-10T09:02:46.433Z,19.05
2019-04-10T09:05:15.698Z,16.05
2019-04-10T09:07:44.832Z,15.90
2019-04-10T09:10:14.418Z,23.47
2019-04-10T09:12:43.542Z,22.20
2019-04-10T09:15:13.960Z,15.05
2019-04-10T09:17:43.832Z,15.93
2019-04-10T09:20:14.198Z,14.63
2019-04-10T09:23:07.567Z,19.50
2019-04-10T09:25:16.082Z,19.60
2019-04-10T09:27:46.183Z,27.53
2019-04-10T09:30:16.399Z,18.30
2019-04-10T09:32:46.435Z,16.50
2019-04-10T09:35:16.338Z,17.17
2019-04-10T09:37:46.294Z,14.80
2019-04-10T09:40:16.291Z,20.17
2019-04-10T09:42:46.259Z,16.47
2019-04-10T09:45:15.626Z,15.37
2019-04-10T09:47:45.742Z,15.80
2019-04-10T09:50:15.290Z,17.00
2019-04-10T09:52:44.330Z,16.57
2019-04-10T09:55:13.920Z,16.53
2019-04-10T09:57:43.167Z,18.40
2019-04-10T10:00:14.313Z,17.97
2019-04-10T10:02:43.370Z,18.67
2019-04-10T10:05:12.650Z,17.30
2019-04-10T10:07:41.681Z,21.23
2019-04-10T10:10:11.013Z,18.60
2019-04-10T10:12:40.802Z,22.93
2019-04-10T10:15:11.403Z,17.80
2019-04-10T10:17:41.214Z,15.40
2019-04-10T10:20:11.598Z,16.67
2019-04-10T10:22:41.156Z,20.10
2019-04-10T10:25:11.162Z,15.93
2019-04-10T10:27:40.748Z,15.10
2019-04-10T10:30:11.499Z,38.07
2019-04-10T10:32:42.126Z,15.40
2019-04-10T10:35:11.546Z,15.93
2019-04-10T10:37:40.962Z,19.93
2019-04-10T10:40:11.782Z,18.03
2019-04-10T10:42:41.464Z,18.43
2019-04-10T10:45:10.932Z,18.43
2019-04-10T10:47:40.386Z,21.80
2019-04-10T10:50:09.955Z,15.37
2019-04-10T10:52:39.813Z,16.30
2019-04-10T10:55:09.660Z,19.33
2019-04-10T10:57:39.657Z,18.20
2019-04-10T11:00:13.018Z,17.20
2019-04-10T11:02:41.473Z,17.07
2019-04-10T11:05:10.829Z,18.93
2019-04-10T11:07:40.530Z,17.47
2019-04-10T11:10:10.884Z,17.30
2019-04-10T11:12:39.999Z,21.83
2019-04-10T11:15:10.076Z,17.10
2019-04-10T11:17:40.384Z,12.20
2019-04-10T11:20:12.618Z,16.20
2019-04-10T11:22:42.338Z,15.10
2019-04-10T11:25:13.382Z,20.63
2019-04-10T11:27:42.663Z,16.17
2019-04-10T11:30:13.979Z,14.13
2019-04-10T11:32:44.437Z,23.13
2019-04-10T11:35:15.579Z,15.37
2019-04-10T11:37:48.356Z,15.97
2019-04-10T11:40:17.980Z,13.80
2019-04-10T11:42:47.133Z,18.93
2019-04-10T11:45:20.334Z,18.93
2019-04-10T11:47:51.316Z,20.37
2019-04-10T11:50:21.809Z,19.87
2019-04-10T11:52:53.386Z,13.70
2019-04-10T11:55:27.027Z,22.63
2019-04-10T11:57:54.591Z,16.57
2019-04-10T12:03:10.413Z,13.83
2019-04-10T12:05:41.550Z,15.20
2019-04-10T12:13:15.562Z,15.67
2019-04-10T12:15:44.897Z,12.47
2019-04-10T12:18:14.201Z,14.50
2019-04-10T12:20:43.250Z,16.90
2019-04-10T12:23:12.659Z,11.93
2019-04-10T12:25:42.902Z,14.90
2019-04-10T12:28:12.271Z,14.97
2019-04-10T12:30:41.697Z,14.27
2019-04-10T12:33:11.686Z,13.73
2019-04-10T12:35:42.360Z,14.33
2019-04-10T12:38:13.225Z,18.00
2019-04-10T12:40:42.714Z,12.90
2019-04-10T12:43:12.656Z,15.13
2019-04-10T12:45:41.880Z,11.83
2019-04-10T12:48:10.935Z,12.90
2019-04-10T12:50:41.183Z,11.17
2019-04-10T12:53:11.592Z,21.27
2019-04-10T12:55:41.770Z,14.20
2019-04-10T12:58:15.528Z,12.97
2019-04-10T13:00:42.875Z,13.70
2019-04-10T13:03:11.585Z,14.40
2019-04-10T13:05:41.158Z,12.37
2019-04-10T13:08:17.894Z,26.00
2019-04-10T13:10:41.025Z,21.37
2019-04-10T13:13:11.479Z,17.10
2019-04-10T13:15:40.675Z,14.70
2019-04-10T13:18:10.106Z,19.47
2019-04-10T13:20:39.909Z,12.93
2019-04-10T13:23:09.308Z,11.30
2019-04-10T13:25:38.843Z,13.20
2019-04-10T13:28:08.853Z,14.10
2019-04-10T13:30:46.907Z,16.97
2019-04-10T13:33:10.022Z,13.13
2019-04-10T13:35:40.024Z,12.33
2019-04-10T13:38:09.084Z,15.20
2019-04-10T13:40:38.052Z,14.53
2019-04-10T13:43:07.188Z,10.73
2019-04-10T13:45:37.269Z,15.43
2019-04-10T13:48:06.443Z,11.40
2019-04-10T13:50:35.412Z,12.47
2019-04-10T13:53:04.503Z,16.10
2019-04-10T13:55:34.576Z,11.13
2019-04-10T13:58:03.726Z,18.33
2019-04-10T14:00:41.137Z,12.30
2019-04-10T14:03:10.897Z,20.10
2019-04-10T14:05:41.101Z,12.13
2019-04-10T14:08:10.529Z,12.53
2019-04-10T14:10:41.376Z,13.23
2019-04-10T14:13:11.477Z,13.57
2019-04-10T14:15:40.847Z,12.30
2019-04-10T14:18:10.275Z,11.70
2019-04-10T14:20:39.539Z,13.07
2019-04-10T14:23:12.689Z,12.73
2019-04-10T14:25:56.003Z,16.40
2019-04-10T14:28:27.105Z,11.93
2019-04-10T14:30:58.462Z,14.20
2019-04-10T14:33:28.226Z,10.07
2019-04-10T14:35:57.809Z,11.07
2019-04-10T14:38:27.426Z,12.47
2019-04-10T14:40:57.533Z,10.50
2019-04-10T14:43:26.879Z,10.60
2019-04-10T14:45:55.883Z,11.60
2019-04-10T14:48:24.746Z,11.00
2019-04-10T14:50:54.609Z,8.97
2019-04-10T14:53:24.839Z,12.43
2019-04-10T14:55:53.920Z,14.47
2019-04-10T14:58:28.143Z,11.93
2019-04-10T15:00:53.094Z,10.23
2019-04-10T15:03:22.566Z,13.63
2019-04-10T15:05:54.021Z,12.90
2019-04-10T15:08:22.081Z,15.97
2019-04-10T15:10:51.095Z,11.80
2019-04-10T15:13:21.563Z,10.40
2019-04-10T15:15:50.749Z,9.87
2019-04-10T15:18:20.460Z,12.33
2019-04-10T15:20:49.633Z,11.13
2019-04-10T15:23:18.739Z,11.37
2019-04-10T15:25:47.778Z,15.70
2019-04-10T15:28:16.706Z,11.00
2019-04-10T15:30:46.588Z,12.07
2019-04-10T15:33:15.881Z,9.80
2019-04-10T15:35:48.038Z,10.77
2019-04-10T15:38:17.894Z,13.27
2019-04-10T15:40:47.183Z,9.50
2019-04-10T15:43:16.802Z,9.20
2019-04-10T15:45:46.342Z,13.23
2019-04-10T15:48:16.581Z,15.20
2019-04-10T15:50:45.954Z,8.90
2019-04-10T15:53:15.937Z,8.50
2019-04-10T15:55:45.346Z,11.70
2019-04-10T15:58:14.985Z,15.23
2019-04-10T16:00:45.435Z,14.10
2019-04-10T16:03:15.397Z,9.93
2019-04-10T16:05:44.604Z,9.73
2019-04-10T16:08:14.659Z,11.37
2019-04-10T16:10:53.355Z,12.97
2019-04-10T16:13:46.347Z,11.60
2019-04-10T16:16:53.000Z,14.57
2019-04-10T16:19:54.346Z,12.67
2019-04-10T16:22:41.268Z,10.30
2019-04-10T16:25:15.903Z,10.83
2019-04-10T16:27:45.286Z,8.07
2019-04-10T16:30:17.203Z,10.23
2019-04-10T16:32:46.715Z,12.07
2019-04-10T16:35:15.859Z,8.83
2019-04-10T16:37:44.822Z,11.23
2019-04-10T16:40:14.985Z,15.37
2019-04-10T16:42:44.181Z,12.50
2019-04-10T16:45:14.081Z,10.90
2019-04-10T16:47:44.041Z,15.53
2019-04-10T16:50:13.236Z,14.27
2019-04-10T16:52:42.320Z,15.20
2019-04-10T16:55:11.877Z,11.10
2019-04-10T16:57:41.005Z,13.43
2019-04-10T17:00:13.608Z,10.00
2019-04-10T17:02:42.313Z,16.10
2019-04-10T17:05:12.399Z,14.13
2019-04-10T17:07:41.549Z,7.13
2019-04-10T17:10:18.221Z,15.53
2019-04-10T17:12:42.451Z,9.90
2019-04-10T17:15:12.232Z,12.27
2019-04-10T17:17:42.274Z,8.57
2019-04-10T17:20:11.956Z,8.93
2019-04-10T17:22:44.438Z,11.30
2019-04-10T17:25:12.085Z,12.73
2019-04-10T17:27:41.101Z,8.63
2019-04-10T17:30:11.721Z,8.87
2019-04-10T17:32:40.682Z,8.90
2019-04-10T17:35:11.519Z,7.90
2019-04-10T17:37:40.591Z,11.07
2019-04-10T17:40:25.401Z,11.87
2019-04-10T17:42:44.196Z,17.05
2019-04-10T17:45:14.217Z,13.10
2019-04-10T17:47:43.601Z,7.07
2019-04-10T17:50:16.247Z,11.43
2019-04-10T17:52:45.450Z,7.37
2019-04-10T17:55:15.549Z,9.25
2019-04-10T17:57:46.088Z,8.28
2019-04-10T18:00:27.241Z,8.80
2019-04-10T18:02:57.198Z,7.40
2019-04-10T18:05:26.618Z,8.75
2019-04-10T18:07:56.557Z,9.53
2019-04-10T18:10:27.718Z,8.30
2019-04-10T18:12:56.669Z,14.80
2019-04-10T18:15:26.166Z,9.90
2019-04-10T18:17:55.554Z,9.75
2019-04-10T18:20:24.845Z,8.63
2019-04-10T18:22:53.399Z,8.25
2019-04-10T18:25:22.493Z,10.98
2019-04-10T18:27:52.414Z,8.30
2019-04-10T18:30:21.710Z,8.35
2019-04-10T18:32:50.876Z,11.45
2019-04-10T18:35:19.919Z,7.47
2019-04-10T18:37:49.122Z,8.45
2019-04-10T18:40:19.098Z,7.87
2019-04-10T18:42:48.584Z,7.78
2019-04-10T18:45:19.470Z,7.67
2019-04-10T18:47:50.171Z,8.58
2019-04-10T18:50:20.233Z,8.48
2019-04-10T18:52:49.736Z,8.10
2019-04-10T18:55:18.911Z,9.88
2019-04-10T18:57:47.970Z,6.40
2019-04-10T19:00:54.588Z,9.10
2019-04-10T19:03:30.488Z,7.90
2019-04-10T19:06:02.591Z,12.45
2019-04-10T19:08:32.203Z,8.70
2019-04-10T19:11:17.006Z,7.53
2019-04-10T19:13:32.800Z,10.90
2019-04-10T19:16:03.389Z,16.32
2019-04-10T19:18:32.754Z,10.30
2019-04-10T19:21:03.079Z,7.10
2019-04-10T19:23:33.125Z,10.72
2019-04-10T19:26:03.059Z,11.78
2019-04-10T19:28:35.013Z,6.70
2019-04-10T19:31:14.861Z,6.45
2019-04-10T19:33:39.464Z,10.35
2019-04-10T19:36:09.729Z,6.87
2019-04-10T19:38:39.297Z,12.60
2019-04-10T19:41:21.306Z,8.33
2019-04-10T19:43:40.100Z,8.13
2019-04-10T19:46:10.272Z,7.25
2019-04-10T19:48:39.477Z,7.80
2019-04-10T19:51:09.708Z,6.05
2019-04-10T19:53:39.530Z,6.47
2019-04-10T19:56:09.362Z,8.58
2019-04-10T19:58:38.578Z,12.13
2019-04-10T20:01:08.668Z,7.70
2019-04-10T20:03:38.032Z,15.00
2019-04-10T20:06:23.746Z,6.75
2019-04-10T20:08:53.216Z,8.25
2019-04-10T20:11:31.821Z,9.23
2019-04-10T20:13:54.622Z,19.73
2019-04-10T20:16:24.905Z,10.68
2019-04-10T20:18:54.530Z,7.00
2019-04-10T20:21:23.892Z,7.92
2019-04-10T20:23:54.403Z,12.63
2019-04-10T20:26:23.817Z,5.20
2019-04-10T20:28:53.167Z,11.97
2019-04-10T20:31:29.128Z,7.80
2019-04-10T20:33:59.109Z,7.78
2019-04-10T20:36:29.115Z,6.28
2019-04-10T20:38:59.023Z,15.83
2019-04-10T20:41:28.855Z,5.37
2019-04-10T20:43:57.469Z,5.87
2019-04-10T20:46:28.407Z,6.00
2019-04-10T20:48:57.764Z,7.33
2019-04-10T20:51:26.856Z,6.72
2019-04-10T20:53:56.309Z,5.90
2019-04-10T20:56:26.417Z,7.92
2019-04-10T20:58:55.674Z,7.22
2019-04-10T21:01:24.770Z,6.17
2019-04-10T21:03:54.027Z,5.03
2019-04-10T21:06:23.259Z,6.05
2019-04-10T21:08:52.759Z,4.05
2019-04-10T21:11:22.655Z,5.12
2019-04-10T21:13:52.024Z,13.93
2019-04-10T21:16:21.139Z,5.50
2019-04-10T21:18:50.236Z,5.12
2019-04-10T21:21:19.399Z,8.88
2019-04-10T21:23:48.733Z,3.80
2019-04-10T21:26:18.540Z,8.18
2019-04-10T21:28:48.127Z,5.40
2019-04-10T21:31:41.075Z,4.90
2019-04-10T21:34:35.548Z,8.80
2019-04-10T21:37:05.998Z,6.58
2019-04-10T21:39:36.056Z,4.70
2019-04-10T21:42:15.817Z,6.00
2019-04-10T21:44:39.219Z,12.37
2019-04-10T21:47:08.925Z,8.75
2019-04-10T21:49:38.264Z,6.08
2019-04-10T21:52:07.799Z,7.55
2019-04-10T21:54:47.969Z,11.15
2019-04-10T21:57:08.145Z,5.10
2019-04-10T21:59:37.416Z,5.42
2019-04-10T22:02:07.423Z,5.40
2019-04-10T22:04:36.701Z,6.80
2019-04-10T22:07:34.361Z,8.35
2019-04-10T22:10:30.070Z,4.35
2019-04-10T22:12:59.585Z,9.13
2019-04-10T22:15:33.619Z,7.33
2019-04-10T22:18:03.237Z,5.85
2019-04-10T22:20:32.543Z,4.37
2019-04-10T22:23:01.906Z,11.75
2019-04-10T22:25:31.881Z,6.08
2019-04-10T22:28:01.456Z,6.47
2019-04-10T22:30:30.774Z,5.53
2019-04-10T22:32:59.978Z,5.75
2019-04-10T22:35:29.167Z,4.12
2019-04-10T22:37:58.405Z,5.00
2019-04-10T22:40:27.644Z,13.32
2019-04-10T22:42:57.485Z,5.72
2019-04-10T22:45:32.667Z,5.28
2019-04-10T22:48:02.500Z,5.17
2019-04-10T22:50:31.720Z,4.97
2019-04-10T22:53:01.356Z,5.10
2019-04-10T22:55:31.761Z,3.87
2019-04-10T22:58:02.484Z,6.25
2019-04-10T23:00:32.687Z,6.58
2019-04-10T23:03:03.201Z,5.40
2019-04-10T23:05:32.956Z,7.87
2019-04-10T23:08:03.354Z,6.17
2019-04-10T23:10:33.213Z,4.17
2019-04-10T23:13:05.602Z,10.43
2019-04-10T23:15:34.063Z,8.40
2019-04-10T23:18:03.443Z,6.37
2019-04-10T23:20:32.703Z,5.65
2019-04-10T23:23:02.990Z,6.65
2019-04-10T23:25:34.248Z,11.33
2019-04-10T23:28:03.673Z,5.00
2019-04-10T23:30:33.106Z,10.48
2019-04-10T23:33:03.803Z,7.05
2019-04-10T23:35:33.725Z,5.30
2019-04-10T23:38:03.613Z,15.03
2019-04-10T23:40:32.875Z,9.08
2019-04-10T23:43:09.550Z,8.13
2019-04-10T23:45:33.530Z,4.97
2019-04-10T23:48:02.570Z,17.23
2019-04-10T23:50:32.289Z,5.00
2019-04-10T23:53:02.457Z,4.80
2019-04-10T23:55:32.255Z,8.85
2019-04-10T23:58:02.139Z,11.57
